Time;durP1;ratioP1;P1;durP2;ratioP2;P2;SDS_P1;SDS_P2;PMS_P1;PMS_P2;Temp;Humidity;BMP_temperature;BMP_pressure;BME280_temperature;BME280_humidity;BME280_pressure;Samples;Min_cycle;Max_cycle;Signal;HPM_P1;HPM_P2
2021/01/26 00:01:36;;;;;;;1999.90;999.90;;;2.80;99.90;;;;;;5053201;28;20651;-88
2021/01/26 00:04:06;;;;;;;1999.90;999.90;;;2.80;99.90;;;;;;5054505;28;20216;-87
2021/01/26 00:06:31;;;;;;;1999.90;999.90;;;2.80;99.90;;;;;;5053022;28;20168;-87
2021/01/26 00:08:57;;;;;;;1999.90;999.90;;;2.90;99.90;;;;;;5053024;28;20172;-88
2021/01/26 00:11:23;;;;;;;1999.90;999.90;;;2.90;99.90;;;;;;5052927;28;20184;-87
2021/01/26 00:13:48;;;;;;;1999.90;999.90;;;2.90;99.90;;;;;;5054577;28;20161;-87
2021/01/26 00:16:14;;;;;;;1999.90;999.90;;;2.90;99.90;;;;;;5054690;28;20172;-88
2021/01/26 00:18:40;;;;;;;1999.90;999.90;;;2.90;99.90;;;;;;5052982;28;20653;-87
2021/01/26 00:21:05;;;;;;;1999.90;999.90;;;2.90;99.90;;;;;;5053033;28;20245;-87
2021/01/26 00:23:31;;;;;;;1999.90;999.90;;;3.00;99.90;;;;;;5055837;28;20528;-87
2021/01/26 00:25:57;;;;;;;1999.90;999.90;;;3.00;99.90;;;;;;5056085;28;20171;-87
2021/01/26 00:28:22;;;;;;;1999.90;999.90;;;2.90;99.90;;;;;;5056573;28;20200;-87
2021/01/26 00:30:51;;;;;;;1999.90;999.90;;;3.00;99.90;;;;;;5057980;28;20168;-87
2021/01/26 00:33:20;;;;;;;1999.90;999.90;;;3.00;99.90;;;;;;5056476;28;20168;-87
2021/01/26 00:35:46;;;;;;;1999.90;999.90;;;3.00;99.90;;;;;;5055931;28;20497;-87
2021/01/26 00:38:12;;;;;;;1999.90;999.90;;;3.00;99.90;;;;;;5053884;28;20207;-87
2021/01/26 00:40:38;;;;;;;1999.90;999.90;;;3.00;99.90;;;;;;5055478;28;20223;-87
2021/01/26 00:43:05;;;;;;;1999.90;999.90;;;2.90;99.90;;;;;;5055115;28;20406;-87
2021/01/26 00:45:31;;;;;;;1999.90;999.90;;;3.00;99.90;;;;;;5054531;28;20165;-87
2021/01/26 00:47:57;;;;;;;1999.90;999.90;;;3.00;99.90;;;;;;5054907;28;20244;-87
2021/01/26 00:50:23;;;;;;;1999.90;999.90;;;3.00;99.90;;;;;;5053049;28;20172;-87
2021/01/26 00:52:49;;;;;;;1999.90;999.90;;;3.00;99.90;;;;;;5053808;28;20169;-87
2021/01/26 00:55:17;;;;;;;1999.90;999.90;;;2.90;99.90;;;;;;5056004;28;20524;-87
2021/01/26 00:57:42;;;;;;;1999.90;999.90;;;3.00;99.90;;;;;;5055918;28;20175;-87
2021/01/26 01:00:19;;;;;;;1999.90;999.90;;;3.00;99.90;;;;;;5054723;28;20188;-87
2021/01/26 01:02:44;;;;;;;1999.90;999.90;;;3.00;99.90;;;;;;5056287;28;20164;-87
2021/01/26 01:05:11;;;;;;;1999.90;999.90;;;3.00;99.90;;;;;;5055776;28;20171;-87
2021/01/26 01:07:37;;;;;;;1999.90;999.90;;;3.00;99.90;;;;;;5054462;28;20203;-87
2021/01/26 01:10:05;;;;;;;1999.90;999.90;;;3.00;99.90;;;;;;5053483;28;20635;-87
2021/01/26 01:12:31;;;;;;;1999.90;999.90;;;3.00;99.90;;;;;;5052883;28;20176;-87
2021/01/26 01:14:56;;;;;;;1999.90;999.90;;;3.00;99.90;;;;;;5054015;28;20527;-87
2021/01/26 01:17:22;;;;;;;1999.90;999.90;;;3.00;99.90;;;;;;5052926;28;20195;-87
2021/01/26 01:19:48;;;;;;;1999.90;999.90;;;3.10;99.90;;;;;;5054223;28;20238;-87
2021/01/26 01:22:13;;;;;;;1999.90;999.90;;;3.10;99.90;;;;;;5054067;28;20215;-87
2021/01/26 01:24:39;;;;;;;1999.90;999.90;;;3.20;99.90;;;;;;5053111;28;20218;-87
2021/01/26 01:27:05;;;;;;;1999.90;999.90;;;3.20;99.90;;;;;;5055121;28;20167;-87
2021/01/26 01:29:31;;;;;;;1999.90;999.90;;;3.30;99.90;;;;;;5054077;28;20168;-87
2021/01/26 01:31:59;;;;;;;1999.90;999.90;;;3.30;99.90;;;;;;5055417;28;20167;-87
2021/01/26 01:34:25;;;;;;;1999.90;999.90;;;3.30;99.90;;;;;;5055836;28;20256;-87
2021/01/26 01:36:51;;;;;;;1999.90;999.90;;;3.30;99.90;;;;;;5056380;28;20165;-88
2021/01/26 01:39:17;;;;;;;1999.90;999.90;;;3.30;99.90;;;;;;5054917;28;20200;-87
2021/01/26 01:41:42;;;;;;;1999.90;999.90;;;3.30;99.90;;;;;;5056282;28;20486;-87
2021/01/26 01:44:08;;;;;;;1999.90;999.90;;;3.40;99.90;;;;;;5056969;28;20449;-87
2021/01/26 01:46:41;;;;;;;1999.90;999.90;;;3.40;99.90;;;;;;5056614;28;20172;-87
2021/01/26 01:49:10;;;;;;;1999.90;999.90;;;3.40;99.90;;;;;;5053868;28;20172;-87
2021/01/26 01:51:40;;;;;;;1999.90;999.90;;;3.40;99.90;;;;;;5054641;28;20551;-88
2021/01/26 01:54:07;;;;;;;1999.90;999.90;;;3.40;99.90;;;;;;5054766;28;20164;-87
2021/01/26 01:56:38;;;;;;;1999.90;999.90;;;3.40;99.90;;;;;;5056159;28;20200;-87
2021/01/26 01:59:17;;;;;;;1999.90;999.90;;;3.50;99.90;;;;;;5056711;28;20693;-86
2021/01/26 02:01:43;;;;;;;1999.90;999.90;;;3.50;99.90;;;;;;5055502;28;20177;-87
2021/01/26 02:04:13;;;;;;;1999.90;999.90;;;3.50;99.90;;;;;;5056648;28;20157;-87
2021/01/26 02:06:40;;;;;;;1999.90;999.90;;;3.50;99.90;;;;;;5055876;28;20169;-87
2021/01/26 02:09:11;;;;;;;1999.90;999.90;;;3.50;99.90;;;;;;5056155;28;20623;-87
2021/01/26 02:11:40;;;;;;;1999.90;999.90;;;3.50;99.90;;;;;;5154327;22;20222;-81
2021/01/26 02:14:29;;;;;;;1999.90;999.90;;;3.60;99.90;;;;;;5057035;28;20184;-80
2021/01/26 02:16:55;;;;;;;1999.90;999.90;;;3.60;99.90;;;;;;5057154;28;20149;-81
2021/01/26 02:20:02;;;;;;;1999.90;999.90;;;3.60;99.90;;;;;;5039527;28;20204;-81
2021/01/26 02:22:47;;;;;;;1999.90;999.90;;;3.60;99.90;;;;;;5060903;28;20160;-79
2021/01/26 02:25:37;;;;;;;1999.90;999.90;;;3.60;99.90;;;;;;5043107;28;20251;-79
2021/01/26 02:28:21;;;;;;;1999.90;999.90;;;3.50;99.90;;;;;;5060700;28;20160;-80
2021/01/26 02:30:59;;;;;;;1999.90;999.90;;;3.50;99.90;;;;;;5042887;28;20172;-80
2021/01/26 02:34:13;;;;;;;1999.90;999.90;;;3.50;99.90;;;;;;5033493;28;20184;-80
2021/01/26 02:37:37;;;;;;;;;;;;;;;;;;;;;
2021/01/26 02:40:36;;;;;;;1999.90;999.90;;;3.50;99.90;;;;;;5061118;28;20176;-81
2021/01/26 02:43:45;;;;;;;1999.90;999.90;;;3.50;99.90;;;;;;5060820;28;20216;-81
2021/01/26 02:46:42;;;;;;;1999.90;999.90;;;3.40;99.90;;;;;;4960959;29;20172;-81
2021/01/26 02:49:37;;;;;;;1999.90;999.90;;;3.40;99.90;;;;;;4944391;29;20183;-81
2021/01/26 02:52:29;;;;;;;1999.90;999.90;;;3.40;99.90;;;;;;4960447;29;20164;-80
2021/01/26 02:55:15;;;;;;;1999.90;999.90;;;3.40;99.90;;;;;;5039274;28;20180;-81
2021/01/26 02:57:51;;;;;;;1999.90;999.90;;;3.40;99.90;;;;;;5060224;28;20156;-80
2021/01/26 03:00:20;;;;;;;1999.90;999.90;;;3.40;99.90;;;;;;5060383;28;20175;-80
2021/01/26 03:03:16;;;;;;;1999.90;999.90;;;3.50;99.90;;;;;;5061216;28;20157;-81
2021/01/26 03:05:51;;;;;;;1999.90;999.90;;;3.50;99.90;;;;;;5043289;28;20160;-81
2021/01/26 03:08:26;;;;;;;1999.90;999.90;;;3.50;99.90;;;;;;5060758;28;20151;-80
2021/01/26 03:10:58;;;;;;;1999.90;999.90;;;3.50;99.90;;;;;;5060681;28;20578;-80
2021/01/26 03:13:31;;;;;;;1999.90;999.90;;;3.50;99.90;;;;;;5060252;28;20582;-81
2021/01/26 03:16:10;;;;;;;1999.90;999.90;;;3.50;99.90;;;;;;5060925;28;20149;-80
2021/01/26 03:19:03;;;;;;;1999.90;999.90;;;3.50;99.90;;;;;;5060972;28;20608;-81
2021/01/26 03:21:31;;;;;;;1999.90;999.90;;;3.60;99.90;;;;;;5047010;28;20284;-80
2021/01/26 03:24:11;;;;;;;1999.90;999.90;;;3.60;99.90;;;;;;5059746;28;20167;-80
2021/01/26 03:26:40;;;;;;;1999.90;999.90;;;3.60;99.90;;;;;;5060205;28;20212;-80
2021/01/26 03:29:08;;;;;;;1999.90;999.90;;;3.60;99.90;;;;;;5059173;28;20172;-81
2021/01/26 03:31:57;;;;;;;1999.90;999.90;;;3.60;99.90;;;;;;5059089;28;20191;-81
2021/01/26 03:34:23;;;;;;;1999.90;999.90;;;3.60;99.90;;;;;;5060765;28;20176;-81
2021/01/26 03:36:49;;;;;;;1999.90;999.90;;;3.60;99.90;;;;;;5041547;28;20168;-81
2021/01/26 03:39:15;;;;;;;1999.90;999.90;;;3.60;99.90;;;;;;5059280;28;20477;-80
2021/01/26 03:41:44;;;;;;;1999.90;999.90;;;3.60;99.90;;;;;;5059290;28;20165;-81
2021/01/26 03:44:11;;;;;;;1999.90;999.90;;;3.60;99.90;;;;;;5059505;28;20774;-80
2021/01/26 03:47:00;;;;;;;1999.90;999.90;;;3.60;99.90;;;;;;5041401;28;20248;-81
2021/01/26 03:49:28;;;;;;;1999.90;999.90;;;3.60;99.90;;;;;;5040699;28;20153;-82
2021/01/26 03:52:31;;;;;;;1999.90;999.90;;;3.60;99.90;;;;;;5058865;28;20659;-81
2021/01/26 03:55:28;;;;;;;1999.90;999.90;;;3.60;99.90;;;;;;5058851;28;20246;-81
2021/01/26 03:58:00;;;;;;;1999.90;999.90;;;3.60;99.90;;;;;;5059492;28;20144;-80
2021/01/26 04:01:03;;;;;;;1999.90;999.90;;;3.60;99.90;;;;;;5058452;28;20177;-79
2021/01/26 04:03:50;;;;;;;1999.90;999.90;;;3.60;99.90;;;;;;5058492;28;20174;-80
2021/01/26 04:06:15;;;;;;;1999.90;999.90;;;3.60;99.90;;;;;;5041281;28;20547;-81
2021/01/26 04:08:46;;;;;;;1999.90;999.90;;;3.60;99.90;;;;;;5058648;28;20164;-80
2021/01/26 04:11:17;;;;;;;1999.90;999.90;;;3.60;99.90;;;;;;5058280;28;20184;-82
2021/01/26 04:13:58;;;;;;;1999.90;999.90;;;3.50;99.90;;;;;;5040808;28;20644;-81
2021/01/26 04:16:28;;;;;;;1999.90;999.90;;;3.50;99.90;;;;;;5059696;28;20631;-81
2021/01/26 04:19:07;;;;;;;1999.90;999.90;;;3.50;99.90;;;;;;5058452;28;20255;-80
2021/01/26 04:21:35;;;;;;;1999.90;999.90;;;3.50;99.90;;;;;;5041033;28;20244;-80
2021/01/26 04:24:01;;;;;;;1999.90;999.90;;;3.60;99.90;;;;;;5059022;28;20161;-80
2021/01/26 04:26:32;;;;;;;1999.90;999.90;;;3.60;99.90;;;;;;5040869;28;20169;-80
2021/01/26 04:28:58;;;;;;;1999.90;999.90;;;3.50;99.90;;;;;;5057776;28;20144;-80
2021/01/26 04:31:23;;;;;;;1999.90;999.90;;;3.50;99.90;;;;;;5058109;28;20160;-81
2021/01/26 04:33:49;;;;;;;1999.90;999.90;;;3.50;99.90;;;;;;5058742;28;20758;-80
2021/01/26 04:36:20;;;;;;;1999.90;999.90;;;3.50;99.90;;;;;;5058922;28;20399;-80
2021/01/26 04:38:47;;;;;;;1999.90;999.90;;;3.50;99.90;;;;;;5058372;28;20475;-80
2021/01/26 04:41:18;;;;;;;1999.90;999.90;;;3.50;99.90;;;;;;5058471;28;20218;-81
2021/01/26 04:44:11;;;;;;;1999.90;999.90;;;3.50;99.90;;;;;;5058260;28;20737;-81
2021/01/26 04:47:07;;;;;;;1999.90;999.90;;;3.50;99.90;;;;;;5040799;28;20164;-81
2021/01/26 04:49:44;;;;;;;1999.90;999.90;;;3.50;99.90;;;;;;5044591;28;20215;-80
2021/01/26 04:52:53;;;;;;;1999.90;999.90;;;3.50;99.90;;;;;;5058430;28;20176;-81
2021/01/26 04:55:31;;;;;;;1999.90;999.90;;;3.50;99.90;;;;;;4958504;29;20176;-80
2021/01/26 04:58:20;;;;;;;1999.90;999.90;;;3.50;99.90;;;;;;5051875;28;20184;-80
2021/01/26 05:01:01;;;;;;;1999.90;999.90;;;3.50;99.90;;;;;;5039925;28;20184;-81
2021/01/26 05:04:04;;;;;;;1999.90;999.90;;;3.50;99.90;;;;;;5057978;28;20163;-81
2021/01/26 05:06:39;;;;;;;1999.90;999.90;;;3.50;99.90;;;;;;5057590;28;20168;-81
2021/01/26 05:09:12;;;;;;;1999.90;999.90;;;3.50;99.90;;;;;;5040646;28;20183;-80
2021/01/26 05:11:42;;;;;;;1999.90;999.90;;;3.50;99.90;;;;;;5058280;28;20188;-81
2021/01/26 05:14:20;;;;;;;1999.90;999.90;;;3.60;99.90;;;;;;5039118;28;20191;-81
2021/01/26 05:16:59;;;;;;;1999.90;999.90;;;3.50;99.90;;;;;;5057643;28;20195;-81
2021/01/26 05:22:54;;;;;;;1999.90;999.90;;;3.50;99.90;;;;;;5148853;22;20228;-81
2021/01/26 05:25:41;;;;;;;;;;;;;;;;;;;;;
2021/01/26 05:28:17;;;;;;;1999.90;999.90;;;3.60;99.90;;;;;;5055868;28;20608;-81
2021/01/26 05:30:53;;;;;;;1999.90;999.90;;;3.60;99.90;;;;;;5056372;28;20156;-81
2021/01/26 05:33:19;;;;;;;1999.90;999.90;;;3.50;99.90;;;;;;5056186;28;20212;-80
2021/01/26 05:35:52;;;;;;;1999.90;999.90;;;3.50;99.90;;;;;;5130842;22;20236;-86
2021/01/26 05:38:22;;;;;;;1999.90;999.90;;;3.50;99.90;;;;;;5058326;28;20378;-87
2021/01/26 05:40:57;;;;;;;1999.90;999.90;;;3.50;99.90;;;;;;5058001;28;20283;-87
2021/01/26 05:43:36;;;;;;;1999.90;999.90;;;3.50;99.90;;;;;;5058823;28;20537;-87
2021/01/26 05:46:06;;;;;;;1999.90;999.90;;;3.50;99.90;;;;;;5057341;28;20629;-87
2021/01/26 05:48:52;;;;;;;1999.90;999.90;;;3.50;99.90;;;;;;5058215;28;20176;-86
2021/01/26 05:51:47;;;;;;;1999.90;999.90;;;3.50;99.90;;;;;;5059448;28;20211;-87
2021/01/26 05:55:08;;;;;;;1999.90;999.90;;;3.50;99.90;;;;;;5057919;28;20219;-87
2021/01/26 05:57:35;;;;;;;1999.90;999.90;;;3.40;99.90;;;;;;5055841;28;20176;-87
2021/01/26 06:00:25;;;;;;;1999.90;999.90;;;3.40;99.90;;;;;;5061957;28;20199;-87
2021/01/26 06:03:29;;;;;;;1999.90;999.90;;;3.40;99.90;;;;;;5045954;28;20654;-86
2021/01/26 06:06:02;;;;;;;1999.90;999.90;;;3.40;99.90;;;;;;5062260;28;20206;-86
2021/01/26 06:08:54;;;;;;;1999.90;999.90;;;3.40;99.90;;;;;;5044327;28;20165;-85
2021/01/26 06:12:02;;;;;;;1999.90;999.90;;;3.30;99.90;;;;;;5060728;28;20187;-85
2021/01/26 06:14:53;;;;;;;;;;;;;;;;;;;;;
2021/01/26 06:17:23;;;;;;;1999.90;999.90;;;3.30;99.90;;;;;;5061587;28;20240;-86
2021/01/26 06:20:18;;;;;;;1999.90;999.90;;;3.30;99.90;;;;;;5043728;28;20287;-85
2021/01/26 06:22:45;;;;;;;1999.90;999.90;;;3.30;99.90;;;;;;5062541;28;20164;-86
2021/01/26 06:25:25;;;;;;;1999.90;999.90;;;3.30;99.90;;;;;;5042854;28;20175;-87
2021/01/26 06:28:03;;;;;;;1999.90;999.90;;;3.30;99.90;;;;;;5042381;28;20167;-85
2021/01/26 06:30:45;;;;;;;1999.90;999.90;;;3.30;99.90;;;;;;5060677;28;20180;-85
2021/01/26 06:33:32;;;;;;;1999.90;999.90;;;3.30;99.90;;;;;;5061090;28;20514;-86
2021/01/26 06:36:19;;;;;;;1999.90;999.90;;;3.40;99.90;;;;;;5061735;28;20184;-86
2021/01/26 06:39:03;;;;;;;1999.90;999.90;;;3.40;99.90;;;;;;5061908;28;20199;-87
2021/01/26 06:42:04;;;;;;;1999.90;999.90;;;3.40;99.90;;;;;;5043944;28;20192;-87
2021/01/26 06:44:29;;;;;;;1999.90;999.90;;;3.40;99.90;;;;;;5064106;28;20579;-86
2021/01/26 06:47:01;;;;;;;1999.90;999.90;;;3.40;99.90;;;;;;5062477;28;20192;-87
2021/01/26 06:49:51;;;;;;;1999.90;999.90;;;3.40;99.90;;;;;;5043125;28;20165;-87
2021/01/26 06:52:48;;;;;;;1999.90;999.90;;;3.30;99.90;;;;;;5041302;28;20539;-87
2021/01/26 06:55:22;;;;;;;1999.90;999.90;;;3.30;99.90;;;;;;5039827;28;20185;-87
2021/01/26 06:58:56;;;;;;;1999.90;999.90;;;3.30;99.90;;;;;;5059584;28;20164;-87
2021/01/26 07:01:04;;;;;;;1999.90;999.90;;;3.30;99.90;;;;;;5046378;28;20200;-87
2021/01/26 07:03:52;;;;;;;1999.90;999.90;;;3.30;99.90;;;;;;5060547;28;20167;-87
2021/01/26 07:06:39;;;;;;;1999.90;999.90;;;3.30;99.90;;;;;;5060071;28;20157;-87
2021/01/26 07:09:49;;;;;;;1999.90;999.90;;;3.30;99.90;;;;;;5041210;28;20420;-87
2021/01/26 07:12:18;;;;;;;1999.90;999.90;;;3.30;99.90;;;;;;5039177;28;20177;-87
2021/01/26 07:15:10;;;;;;;1999.90;999.90;;;3.40;99.90;;;;;;5041384;28;20164;-87
2021/01/26 07:18:27;;;;;;;1999.90;999.90;;;3.30;99.90;;;;;;5061688;28;20168;-86
2021/01/26 07:21:09;;;;;;;1999.90;999.90;;;3.30;99.90;;;;;;5019535;28;20208;-86
2021/01/26 07:24:02;;;;;;;1999.90;999.90;;;3.30;99.90;;;;;;5043575;28;20157;-86
2021/01/26 07:27:01;;;;;;;1999.90;999.90;;;3.30;99.90;;;;;;5061078;28;20153;-86
2021/01/26 07:29:54;;;;;;;1999.90;999.90;;;3.20;99.90;;;;;;5058722;28;20685;-86
2021/01/26 07:32:53;;;;;;;1999.90;999.90;;;3.10;99.90;;;;;;5061312;28;20251;-86
2021/01/26 07:35:58;;;;;;;1999.90;999.90;;;3.10;99.90;;;;;;5041057;28;20177;-86
2021/01/26 07:39:03;;;;;;;1999.90;999.90;;;3.10;99.90;;;;;;4995274;28;20179;-86
2021/01/26 07:41:55;;;;;;;1999.90;999.90;;;3.20;99.90;;;;;;5039559;28;20168;-86
2021/01/26 07:44:42;;;;;;;1999.90;999.90;;;3.20;99.90;;;;;;5057573;28;20148;-86
2021/01/26 07:47:12;;;;;;;1999.90;999.90;;;3.20;99.90;;;;;;5058109;28;20210;-86
2021/01/26 07:49:47;;;;;;;1999.90;999.90;;;3.20;99.90;;;;;;5057949;28;20172;-86
2021/01/26 07:52:15;;;;;;;1999.90;999.90;;;3.20;99.90;;;;;;5058326;28;20192;-86
2021/01/26 07:54:50;;;;;;;1999.90;999.90;;;3.30;99.90;;;;;;5040467;28;20175;-85
2021/01/26 07:57:18;;;;;;;1999.90;999.90;;;3.30;99.90;;;;;;5042415;28;20298;-87
2021/01/26 07:59:53;;;;;;;1999.90;999.90;;;3.30;99.90;;;;;;5061129;28;20194;-87
2021/01/26 08:02:24;;;;;;;1999.90;999.90;;;3.30;99.90;;;;;;5060281;28;20156;-87
2021/01/26 08:04:49;;;;;;;1999.90;999.90;;;3.30;99.90;;;;;;5059839;28;20664;-86
2021/01/26 08:07:28;;;;;;;1999.90;999.90;;;3.30;99.90;;;;;;5060661;28;20196;-87
2021/01/26 08:09:55;;;;;;;1999.90;999.90;;;3.30;99.90;;;;;;5059245;28;20395;-86
2021/01/26 08:12:42;;;;;;;1999.90;999.90;;;3.30;99.90;;;;;;5041337;28;20178;-86
2021/01/26 08:15:26;;;;;;;1999.90;999.90;;;3.30;99.90;;;;;;5059778;28;20166;-86
2021/01/26 08:17:52;;;;;;;1999.90;999.90;;;3.30;99.90;;;;;;5059617;28;20156;-86
2021/01/26 08:20:24;;;;;;;1999.90;999.90;;;3.30;99.90;;;;;;5042192;28;20196;-86
2021/01/26 08:23:04;;;;;;;1999.90;999.90;;;3.30;99.90;;;;;;5041856;28;20268;-87
2021/01/26 08:25:36;;;;;;;1999.90;999.90;;;3.40;99.90;;;;;;5060536;28;20148;-87
2021/01/26 08:28:30;;;;;;;1999.90;999.90;;;3.40;99.90;;;;;;5059096;28;20172;-86
2021/01/26 08:31:04;;;;;;;1999.90;999.90;;;3.40;99.90;;;;;;5039992;28;20180;-86
2021/01/26 08:33:33;;;;;;;1999.90;999.90;;;3.40;99.90;;;;;;5059769;28;20157;-86
2021/01/26 08:36:10;;;;;;;1999.90;999.90;;;3.40;99.90;;;;;;5042186;28;20180;-87
2021/01/26 08:38:54;;;;;;;1999.90;999.90;;;3.40;99.90;;;;;;5041031;28;20164;-87
2021/01/26 08:41:39;;;;;;;1999.90;999.90;;;3.40;99.90;;;;;;5037619;28;20191;-86
2021/01/26 08:44:18;;;;;;;1999.90;999.90;;;3.40;99.90;;;;;;5055943;28;20152;-86
2021/01/26 08:46:57;;;;;;;1999.90;999.90;;;3.40;99.90;;;;;;5037375;28;20168;-86
2021/01/26 08:49:31;;;;;;;1999.90;999.90;;;3.50;99.90;;;;;;5055426;28;20171;-85
2021/01/26 08:52:22;;;;;;;1999.90;999.90;;;3.50;99.90;;;;;;5058553;28;20179;-87
2021/01/26 08:54:51;;;;;;;1999.90;999.90;;;3.50;99.90;;;;;;5058272;28;20647;-87
2021/01/26 08:57:29;;;;;;;1999.90;999.90;;;3.50;99.90;;;;;;5058917;28;20179;-87
2021/01/26 09:00:12;;;;;;;1999.90;999.90;;;3.50;99.90;;;;;;5059702;28;20192;-87
2021/01/26 09:02:41;;;;;;;1999.90;999.90;;;3.50;99.90;;;;;;5059628;28;20185;-87
2021/01/26 09:05:08;;;;;;;1999.90;999.90;;;3.50;99.90;;;;;;5058757;28;20164;-87
2021/01/26 09:07:47;;;;;;;1999.90;999.90;;;3.50;99.90;;;;;;5041812;28;20259;-87
2021/01/26 09:10:40;;;;;;;1999.90;999.90;;;3.50;99.90;;;;;;5061235;28;20203;-87
2021/01/26 09:13:27;;;;;;;1999.90;999.90;;;3.60;99.90;;;;;;5011980;28;20639;-87
2021/01/26 09:16:02;;;;;;;1999.90;999.90;;;3.60;99.90;;;;;;5040902;28;20168;-87
2021/01/26 09:18:29;;;;;;;1999.90;999.90;;;3.60;99.90;;;;;;5058850;28;20161;-87
2021/01/26 09:21:11;;;;;;;1999.90;999.90;;;3.60;99.90;;;;;;5057907;28;20203;-86
2021/01/26 09:23:41;;;;;;;1999.90;999.90;;;3.60;99.90;;;;;;5059869;28;20145;-87
2021/01/26 09:26:15;;;;;;;1999.90;999.90;;;3.60;99.90;;;;;;5060213;28;20157;-87
2021/01/26 09:28:43;;;;;;;1999.90;999.90;;;3.70;99.90;;;;;;5059755;28;20616;-87
2021/01/26 09:31:12;;;;;;;1999.90;999.90;;;3.70;99.90;;;;;;5063463;28;20169;-87
2021/01/26 09:33:38;;;;;;;1999.90;999.90;;;3.80;99.90;;;;;;5044234;28;20171;-87
2021/01/26 09:36:04;;;;;;;1999.90;999.90;;;3.80;99.90;;;;;;5045087;28;20183;-86
2021/01/26 09:38:49;;;;;;;1999.90;999.90;;;3.80;99.90;;;;;;5041781;28;20701;-86
2021/01/26 09:41:27;;;;;;;1999.90;999.90;;;3.80;99.90;;;;;;5058485;28;20272;-86
2021/01/26 09:44:08;;;;;;;1999.90;999.90;;;3.90;99.90;;;;;;5062556;28;20171;-86
2021/01/26 09:46:37;;;;;;;1999.90;999.90;;;3.90;99.90;;;;;;5062755;28;20199;-87
2021/01/26 09:49:26;;;;;;;1999.90;999.90;;;4.00;99.90;;;;;;5060743;28;20183;-86
2021/01/26 09:52:19;;;;;;;1999.90;999.90;;;4.00;99.90;;;;;;5042654;28;20180;-86
2021/01/26 09:55:55;;;;;;;1999.90;999.90;;;4.00;99.90;;;;;;5041195;28;20168;-85
2021/01/26 09:57:59;;;;;;;1999.90;999.90;;;4.00;99.90;;;;;;5044348;28;20172;-86
2021/01/26 10:00:38;;;;;;;1999.90;999.90;;;4.00;99.90;;;;;;5040643;28;20188;-86
2021/01/26 10:03:14;;;;;;;;;;;;;;;;;;;;;
2021/01/26 10:06:01;;;;;;;1999.90;999.90;;;4.10;99.90;;;;;;5058945;28;20153;-86
2021/01/26 10:09:11;;;;;;;1999.90;999.90;;;4.10;99.90;;;;;;5058019;28;20171;-86
2021/01/26 10:11:56;;;;;;;1999.90;999.90;;;4.10;99.90;;;;;;5028923;28;20631;-87
2021/01/26 10:14:30;;;;;;;1999.90;999.90;;;4.10;99.90;;;;;;5041077;28;20515;-86
2021/01/26 10:17:02;;;;;;;1999.90;999.90;;;4.20;99.90;;;;;;5058320;28;20145;-85
2021/01/26 10:19:43;;;;;;;1999.90;999.90;;;4.20;99.90;;;;;;5039685;28;20235;-86
2021/01/26 10:22:31;;;;;;;1999.90;999.90;;;4.30;99.90;;;;;;5039645;28;20183;-86
2021/01/26 10:25:07;;;;;;;1999.90;999.90;;;4.30;99.90;;;;;;5039941;28;20560;-87
2021/01/26 10:27:42;;;;;;;1999.90;999.90;;;4.30;99.90;;;;;;5042409;28;20183;-86
2021/01/26 10:30:19;;;;;;;1999.90;999.90;;;4.40;99.90;;;;;;5040844;28;20172;-86
2021/01/26 10:32:49;;;;;;;1999.90;999.90;;;4.50;99.90;;;;;;5042934;28;20564;-87
2021/01/26 10:35:34;;;;;;;1999.90;999.90;;;4.60;99.90;;;;;;5041982;28;20185;-86
2021/01/26 10:38:42;;;;;;;1999.90;999.90;;;4.60;99.90;;;;;;5043059;28;20596;-86
2021/01/26 10:41:12;;;;;;;1999.90;999.90;;;4.50;99.90;;;;;;4959235;28;20714;-86
2021/01/26 10:43:39;;;;;;;1999.90;999.90;;;4.60;99.90;;;;;;4959758;29;20170;-86
2021/01/26 10:46:31;;;;;;;1999.90;999.90;;;4.50;99.90;;;;;;4994241;28;20612;-83
2021/01/26 10:49:41;;;;;;;1999.90;999.90;;;4.50;99.90;;;;;;5039552;28;20616;-83
2021/01/26 10:52:08;;;;;;;1999.90;999.90;;;4.50;99.90;;;;;;5058432;28;20683;-84
2021/01/26 10:54:37;;;;;;;1999.90;999.90;;;4.70;99.90;;;;;;5057641;28;20574;-85
2021/01/26 10:57:06;;;;;;;1999.90;999.90;;;4.70;99.90;;;;;;5059061;28;20168;-87
2021/01/26 10:59:35;;;;;;;1999.90;999.90;;;4.80;99.90;;;;;;5042351;28;20203;-87
2021/01/26 11:02:11;;;;;;;1999.90;999.90;;;4.80;99.90;;;;;;5041341;28;20628;-86
2021/01/26 11:04:37;;;;;;;1999.90;999.90;;;4.80;99.90;;;;;;5059660;28;20159;-86
2021/01/26 11:07:02;;;;;;;1999.90;999.90;;;4.90;99.90;;;;;;5059742;28;20164;-86
2021/01/26 11:09:28;;;;;;;1999.90;999.90;;;5.00;99.90;;;;;;5058962;28;20169;-86
2021/01/26 11:11:56;;;;;;;1999.90;999.90;;;5.00;99.90;;;;;;5039594;28;20646;-86
2021/01/26 11:14:25;;;;;;;1999.90;999.90;;;5.00;99.90;;;;;;5057971;28;20169;-86
2021/01/26 11:17:03;;;;;;;1999.90;999.90;;;4.90;99.90;;;;;;5038782;28;20176;-87
2021/01/26 11:19:35;;;;;;;1999.90;999.90;;;4.90;99.90;;;;;;5056681;28;20643;-85
2021/01/26 11:22:06;;;;;;;1999.90;999.90;;;4.90;99.90;;;;;;5039297;28;20184;-85
2021/01/26 11:24:35;;;;;;;1999.90;999.90;;;4.90;99.90;;;;;;5058766;28;20179;-85
2021/01/26 11:27:23;;;;;;;1999.90;999.90;;;4.90;99.90;;;;;;5039268;28;20211;-86
2021/01/26 11:29:49;;;;;;;1999.90;999.90;;;4.90;99.90;;;;;;5057244;28;20556;-86
2021/01/26 11:32:18;;;;;;;1999.90;999.90;;;4.90;99.90;;;;;;5056278;28;20164;-85
2021/01/26 11:34:46;;;;;;;1999.90;999.90;;;4.90;99.90;;;;;;5038417;28;20255;-86
2021/01/26 11:37:16;;;;;;;1999.90;999.90;;;4.90;99.90;;;;;;5038466;28;20176;-85
2021/01/26 11:39:41;;;;;;;1999.90;999.90;;;4.90;99.90;;;;;;5041713;28;20278;-86
2021/01/26 11:42:08;;;;;;;1999.90;999.90;;;5.00;99.90;;;;;;5059601;28;20165;-85
2021/01/26 11:44:35;;;;;;;1999.90;999.90;;;5.00;99.90;;;;;;5058991;28;20232;-85
2021/01/26 11:47:01;;;;;;;1999.90;999.90;;;4.90;99.90;;;;;;5059471;28;20623;-86
2021/01/26 11:49:27;;;;;;;1999.90;999.90;;;4.90;99.90;;;;;;5042238;28;20553;-86
2021/01/26 11:51:53;;;;;;;1999.90;999.90;;;5.00;99.90;;;;;;5059515;28;20164;-85
2021/01/26 11:54:23;;;;;;;1999.90;999.90;;;5.00;99.90;;;;;;5058700;28;20160;-87
2021/01/26 11:56:48;;;;;;;1999.90;999.90;;;5.00;99.90;;;;;;5040425;28;20512;-85
2021/01/26 11:59:14;;;;;;;1999.90;999.90;;;4.90;99.90;;;;;;5056969;28;20214;-86
2021/01/26 12:01:40;;;;;;;1999.90;999.90;;;4.90;99.90;;;;;;5038846;28;20422;-86
2021/01/26 12:04:06;;;;;;;1999.90;999.90;;;4.90;99.90;;;;;;5038575;28;20164;-85
2021/01/26 12:06:44;;;;;;;1999.90;999.90;;;4.80;99.90;;;;;;5056115;28;20395;-86
2021/01/26 12:09:13;;;;;;;1999.90;999.90;;;4.80;99.90;;;;;;5038186;28;20164;-85
2021/01/26 12:11:42;;;;;;;1999.90;999.90;;;4.80;99.90;;;;;;5037731;28;20172;-85
2021/01/26 12:14:14;;;;;;;1999.90;999.90;;;4.80;99.90;;;;;;5055803;28;20171;-86
2021/01/26 12:16:40;;;;;;;1999.90;999.90;;;4.80;99.90;;;;;;5040491;28;20596;-86
2021/01/26 12:19:05;;;;;;;1999.90;999.90;;;4.80;99.90;;;;;;5040715;28;20214;-85
2021/01/26 12:21:31;;;;;;;1999.90;999.90;;;4.70;99.90;;;;;;5040625;28;20228;-85
2021/01/26 12:23:57;;;;;;;1999.90;999.90;;;4.70;99.90;;;;;;5059302;28;20224;-87
2021/01/26 12:26:25;;;;;;;1999.90;999.90;;;4.70;99.90;;;;;;5058249;28;20746;-85
2021/01/26 12:28:51;;;;;;;1999.90;999.90;;;4.70;99.90;;;;;;5057179;28;20239;-85
2021/01/26 12:31:17;;;;;;;1999.90;999.90;;;4.80;99.90;;;;;;5039381;28;20207;-85
2021/01/26 12:33:43;;;;;;;1999.90;999.90;;;4.80;99.90;;;;;;5057388;28;20255;-85
2021/01/26 12:36:08;;;;;;;1999.90;999.90;;;4.90;99.90;;;;;;5057198;28;20188;-85
2021/01/26 12:38:34;;;;;;;1999.90;999.90;;;4.90;99.90;;;;;;5055734;28;20192;-85
2021/01/26 12:41:00;;;;;;;1999.90;999.90;;;4.90;99.90;;;;;;5155612;22;20541;-85
2021/01/26 12:43:26;;;;;;;1999.90;999.90;;;5.00;99.90;;;;;;5037851;28;20407;-85
2021/01/26 12:45:55;;;;;;;1999.90;999.90;;;5.10;99.90;;;;;;5055010;28;20623;-84
2021/01/26 12:48:20;;;;;;;1999.90;999.90;;;5.10;99.90;;;;;;5054971;28;20522;-85
2021/01/26 12:50:47;;;;;;;1999.90;999.90;;;5.10;99.90;;;;;;5037311;28;20169;-86
2021/01/26 12:53:13;;;;;;;1999.90;999.90;;;5.10;99.90;;;;;;5037705;28;20165;-85
2021/01/26 12:55:39;;;;;;;1999.90;999.90;;;5.10;99.90;;;;;;5056216;28;20628;-85
2021/01/26 12:58:06;;;;;;;1999.90;999.90;;;5.10;99.90;;;;;;5055052;28;20169;-85
2021/01/26 13:00:31;;;;;;;1999.90;999.90;;;5.10;99.90;;;;;;5036438;28;20189;-86
2021/01/26 13:02:58;;;;;;;1999.90;999.90;;;5.10;99.90;;;;;;5054058;28;20523;-85